FLI7884 ENBO-ENSB
Flight info
| Callsign | FLI7884 |
|---|---|
| Flight time | 1h 58m |
| Altitude | 30000 |
| Route | MUGIF DCT ELRES DCT ADV |
| Aircraft | B463/M-SDFGIRWY/LB1 |
Departure
| Time | 2026-04-24 21:58 |
|---|---|
| Airport | Bodø Airport (ENBO) |
Arrival
| Time | 2026-04-24 23:56 |
|---|---|
| Airport | Svalbard Airport, Longyear (ENSB) |
| Time | Latitude | Longitude | Altitude | Speed | Heading |
|---|---|---|---|---|---|
| 2026-04-24 21:46 | 67.27116 | 14.36239 | 47 ft | 0 kts | 270° |
| 2026-04-24 21:48 | 67.27117 | 14.36239 | 47 ft | 0 kts | 270° |
| 2026-04-24 21:49 | 67.27116 | 14.36239 | 47 ft | 0 kts | 270° |
| 2026-04-24 21:53 | 67.27115 | 14.36196 | 46 ft | 4 kts | 255° |
| 2026-04-24 21:53 | 67.27087 | 14.36136 | 47 ft | 7 kts | 185° |
| 2026-04-24 21:54 | 67.27031 | 14.36091 | 47 ft | 9 kts | 229° |
| 2026-04-24 21:54 | 67.27007 | 14.35874 | 46 ft | 14 kts | 259° |
| 2026-04-24 21:54 | 67.26986 | 14.35600 | 46 ft | 18 kts | 258° |
| 2026-04-24 21:54 | 67.26957 | 14.35253 | 45 ft | 20 kts | 257° |
| 2026-04-24 21:55 | 67.26924 | 14.34835 | 42 ft | 25 kts | 261° |
| 2026-04-24 21:55 | 67.26881 | 14.34356 | 36 ft | 27 kts | 258° |
| 2026-04-24 21:55 | 67.26837 | 14.33842 | 31 ft | 24 kts | 258° |
| 2026-04-24 21:55 | 67.26809 | 14.33507 | 28 ft | 4 kts | 258° |
| 2026-04-24 21:56 | 67.26789 | 14.33415 | 27 ft | 8 kts | 219° |
| 2026-04-24 21:56 | 67.26724 | 14.33411 | 28 ft | 11 kts | 174° |
| 2026-04-24 21:56 | 67.26685 | 14.33437 | 28 ft | 10 kts | 148° |
| 2026-04-24 21:56 | 67.26677 | 14.33586 | 29 ft | 4 kts | 79° |
| 2026-04-24 21:57 | 67.26679 | 14.33613 | 29 ft | 10 kts | 80° |
| 2026-04-24 21:57 | 67.26735 | 14.34315 | 37 ft | 72 kts | 77° |
| 2026-04-24 21:57 | 67.26890 | 14.36111 | 48 ft | 129 kts | 78° |
| 2026-04-24 21:57 | 67.27079 | 14.38580 | 398 ft | 138 kts | 74° |
| 2026-04-24 21:58 | 67.27212 | 14.40620 | 892 ft | 138 kts | 75° |
| 2026-04-24 21:58 | 67.27377 | 14.43131 | 1287 ft | 151 kts | 75° |
| 2026-04-24 21:58 | 67.27303 | 14.46318 | 1124 ft | 201 kts | 92° |
| 2026-04-24 21:58 | 67.27375 | 14.50221 | 1221 ft | 232 kts | 74° |
| 2026-04-24 21:59 | 67.28117 | 14.54055 | 1588 ft | 247 kts | 41° |
| 2026-04-24 21:59 | 67.29493 | 14.56438 | 2799 ft | 238 kts | 28° |
| 2026-04-24 21:59 | 67.30881 | 14.58683 | 3829 ft | 240 kts | 29° |
| 2026-04-24 21:59 | 67.32296 | 14.60959 | 4821 ft | 243 kts | 30° |
| 2026-04-24 22:00 | 67.33663 | 14.63403 | 5835 ft | 244 kts | 32° |
| 2026-04-24 22:00 | 67.35055 | 14.65955 | 6790 ft | 247 kts | 33° |
| 2026-04-24 22:00 | 67.36457 | 14.68547 | 7712 ft | 252 kts | 33° |
| 2026-04-24 22:00 | 67.37880 | 14.71156 | 8568 ft | 256 kts | 28° |
| 2026-04-24 22:01 | 67.39556 | 14.72538 | 9422 ft | 257 kts | 1° |
| 2026-04-24 22:01 | 67.41292 | 14.71663 | 10273 ft | 261 kts | 340° |
| 2026-04-24 22:01 | 67.43001 | 14.69910 | 10918 ft | 272 kts | 341° |
| 2026-04-24 22:01 | 67.44859 | 14.68418 | 11580 ft | 284 kts | 343° |
| 2026-04-24 22:02 | 67.46786 | 14.66900 | 12214 ft | 295 kts | 343° |
| 2026-04-24 22:02 | 67.48782 | 14.65302 | 12784 ft | 308 kts | 343° |
| 2026-04-24 22:02 | 67.50850 | 14.63643 | 13417 ft | 319 kts | 342° |
| 2026-04-24 22:02 | 67.53014 | 14.61906 | 14100 ft | 328 kts | 342° |
| 2026-04-24 22:03 | 67.55198 | 14.60151 | 14814 ft | 335 kts | 342° |
| 2026-04-24 22:03 | 67.57443 | 14.58343 | 15597 ft | 339 kts | 342° |
| 2026-04-24 22:03 | 67.59683 | 14.56536 | 16369 ft | 343 kts | 342° |
| 2026-04-24 22:03 | 67.61959 | 14.54697 | 17054 ft | 342 kts | 342° |
| 2026-04-24 22:04 | 67.64243 | 14.52834 | 17253 ft | 351 kts | 342° |
| 2026-04-24 22:04 | 67.66595 | 14.50930 | 17771 ft | 353 kts | 342° |
| 2026-04-24 22:04 | 67.68917 | 14.49049 | 18392 ft | 353 kts | 342° |
| 2026-04-24 22:04 | 67.71255 | 14.47147 | 19014 ft | 352 kts | 342° |
| 2026-04-24 22:05 | 67.73658 | 14.45642 | 19542 ft | 355 kts | 354° |
| 2026-04-24 22:05 | 67.76132 | 14.46316 | 20172 ft | 358 kts | 15° |
| 2026-04-24 22:05 | 67.78359 | 14.49327 | 20726 ft | 364 kts | 34° |
| 2026-04-24 22:05 | 67.80334 | 14.53431 | 21229 ft | 365 kts | 34° |
| 2026-04-24 22:06 | 67.82341 | 14.57449 | 21716 ft | 364 kts | 33° |
| 2026-04-24 22:06 | 67.84356 | 14.61424 | 22236 ft | 363 kts | 33° |
| 2026-04-24 22:06 | 67.86379 | 14.65424 | 22666 ft | 364 kts | 33° |
| 2026-04-24 22:06 | 67.88414 | 14.69468 | 23176 ft | 363 kts | 34° |
| 2026-04-24 22:07 | 67.90425 | 14.73478 | 23617 ft | 363 kts | 34° |
| 2026-04-24 22:07 | 67.92454 | 14.77536 | 24078 ft | 362 kts | 34° |
| 2026-04-24 22:07 | 67.94462 | 14.81563 | 24512 ft | 361 kts | 34° |
| 2026-04-24 22:07 | 67.96476 | 14.85613 | 24903 ft | 361 kts | 34° |
| 2026-04-24 22:08 | 67.98457 | 14.89608 | 25247 ft | 361 kts | 34° |
| 2026-04-24 22:08 | 68.00464 | 14.93667 | 25566 ft | 361 kts | 34° |
| 2026-04-24 22:08 | 68.02451 | 14.97694 | 25848 ft | 362 kts | 34° |
| 2026-04-24 22:08 | 68.04452 | 15.01756 | 26138 ft | 362 kts | 33° |
| 2026-04-24 22:09 | 68.06442 | 15.05813 | 26452 ft | 362 kts | 33° |
| 2026-04-24 22:09 | 68.08445 | 15.09901 | 26717 ft | 362 kts | 33° |
| 2026-04-24 22:09 | 68.10430 | 15.13965 | 26989 ft | 362 kts | 33° |
| 2026-04-24 22:09 | 68.12426 | 15.18062 | 27182 ft | 365 kts | 33° |
| 2026-04-24 22:10 | 68.14459 | 15.22247 | 27372 ft | 368 kts | 33° |
| 2026-04-24 22:10 | 68.16498 | 15.26455 | 27571 ft | 370 kts | 33° |
| 2026-04-24 22:10 | 68.18558 | 15.30587 | 27686 ft | 373 kts | 30° |
| 2026-04-24 22:10 | 68.20773 | 15.34127 | 27714 ft | 378 kts | 22° |
| 2026-04-24 22:11 | 68.23218 | 15.36948 | 27719 ft | 380 kts | 15° |
| 2026-04-24 22:11 | 68.25665 | 15.38811 | 27724 ft | 383 kts | 8° |
| 2026-04-24 22:11 | 68.28297 | 15.40053 | 27715 ft | 387 kts | 5° |
| 2026-04-24 22:11 | 68.30953 | 15.41071 | 27703 ft | 390 kts | 4° |
| 2026-04-24 22:12 | 68.33652 | 15.41961 | 27695 ft | 390 kts | 3° |
| 2026-04-24 22:12 | 68.36346 | 15.42961 | 27689 ft | 391 kts | 5° |
| 2026-04-24 22:12 | 68.39032 | 15.44108 | 27679 ft | 390 kts | 5° |
| 2026-04-24 22:12 | 68.41705 | 15.45263 | 27667 ft | 390 kts | 5° |
| 2026-04-24 22:13 | 68.44354 | 15.46410 | 27664 ft | 390 kts | 5° |
| 2026-04-24 22:13 | 68.47041 | 15.47572 | 27646 ft | 390 kts | 6° |
| 2026-04-24 22:13 | 68.49723 | 15.48735 | 27633 ft | 390 kts | 5° |
| 2026-04-24 22:13 | 68.52380 | 15.49889 | 27631 ft | 390 kts | 6° |
| 2026-04-24 22:14 | 68.55060 | 15.51056 | 27641 ft | 390 kts | 5° |
| 2026-04-24 22:14 | 68.57714 | 15.52216 | 27648 ft | 389 kts | 6° |
| 2026-04-24 22:14 | 68.60393 | 15.53388 | 27659 ft | 388 kts | 5° |
| 2026-04-24 22:14 | 68.63059 | 15.54557 | 27667 ft | 388 kts | 5° |
| 2026-04-24 22:15 | 68.65729 | 15.55732 | 27675 ft | 388 kts | 6° |
| 2026-04-24 22:15 | 68.68386 | 15.56903 | 27682 ft | 387 kts | 5° |
| 2026-04-24 22:15 | 68.71011 | 15.58063 | 27684 ft | 387 kts | 6° |
| 2026-04-24 22:15 | 68.73676 | 15.59244 | 27690 ft | 387 kts | 5° |
| 2026-04-24 22:16 | 68.76324 | 15.60420 | 27698 ft | 387 kts | 6° |
| 2026-04-24 22:16 | 68.78989 | 15.61607 | 27694 ft | 386 kts | 5° |
| 2026-04-24 22:16 | 68.81602 | 15.62773 | 27692 ft | 386 kts | 6° |
| 2026-04-24 22:16 | 68.84244 | 15.63955 | 27699 ft | 386 kts | 6° |
| 2026-04-24 22:17 | 68.86898 | 15.65146 | 27701 ft | 386 kts | 6° |
| 2026-04-24 22:17 | 68.89545 | 15.66336 | 27703 ft | 386 kts | 6° |
| 2026-04-24 22:17 | 68.92137 | 15.67504 | 27711 ft | 386 kts | 6° |
| 2026-04-24 22:17 | 68.94801 | 15.68707 | 27711 ft | 387 kts | 6° |
| 2026-04-24 22:18 | 68.97478 | 15.69919 | 27713 ft | 387 kts | 6° |
| 2026-04-24 22:18 | 69.00116 | 15.71117 | 27712 ft | 386 kts | 6° |
| 2026-04-24 22:18 | 69.02740 | 15.72311 | 27716 ft | 386 kts | 6° |
| 2026-04-24 22:18 | 69.05412 | 15.73531 | 27713 ft | 386 kts | 6° |
| 2026-04-24 22:19 | 69.08048 | 15.74736 | 27713 ft | 386 kts | 6° |
| 2026-04-24 22:19 | 69.10680 | 15.75943 | 27716 ft | 385 kts | 6° |
| 2026-04-24 22:19 | 69.11440 | 15.76292 | 27718 ft | 385 kts | 6° |
| 2026-04-24 22:19 | 69.14111 | 15.77520 | 27718 ft | 385 kts | 6° |
| 2026-04-24 22:20 | 69.16751 | 15.78737 | 27715 ft | 385 kts | 6° |
| 2026-04-24 22:20 | 69.19386 | 15.79955 | 27716 ft | 385 kts | 6° |
| 2026-04-24 22:20 | 69.22010 | 15.81171 | 27716 ft | 385 kts | 6° |
| 2026-04-24 22:20 | 69.24638 | 15.82393 | 27715 ft | 385 kts | 6° |
| 2026-04-24 22:21 | 69.27296 | 15.83631 | 27715 ft | 385 kts | 6° |
| 2026-04-24 22:21 | 69.29939 | 15.84864 | 27714 ft | 385 kts | 6° |
| 2026-04-24 22:21 | 69.32551 | 15.86087 | 27713 ft | 385 kts | 6° |
| 2026-04-24 22:21 | 69.35202 | 15.87330 | 27708 ft | 385 kts | 6° |
| 2026-04-24 22:22 | 69.37831 | 15.88567 | 27706 ft | 385 kts | 6° |
| 2026-04-24 22:22 | 69.40464 | 15.89809 | 27706 ft | 384 kts | 6° |
| 2026-04-24 22:22 | 69.43093 | 15.91053 | 27705 ft | 384 kts | 6° |
| 2026-04-24 22:22 | 69.45694 | 15.92284 | 27708 ft | 383 kts | 6° |
| 2026-04-24 22:23 | 69.48319 | 15.93532 | 27709 ft | 383 kts | 6° |
| 2026-04-24 22:23 | 69.50924 | 15.94773 | 27711 ft | 383 kts | 6° |
| 2026-04-24 22:23 | 69.53566 | 15.96034 | 27710 ft | 383 kts | 6° |
| 2026-04-24 22:23 | 69.56177 | 15.97284 | 27710 ft | 382 kts | 6° |
| 2026-04-24 22:24 | 69.58798 | 15.98542 | 27708 ft | 382 kts | 6° |
| 2026-04-24 22:24 | 69.61408 | 15.99797 | 27707 ft | 382 kts | 6° |
| 2026-04-24 22:24 | 69.64002 | 16.01047 | 27706 ft | 382 kts | 6° |
| 2026-04-24 22:24 | 69.66618 | 16.02312 | 27706 ft | 382 kts | 6° |
| 2026-04-24 22:25 | 69.69236 | 16.03581 | 27703 ft | 381 kts | 6° |
| 2026-04-24 22:25 | 69.71819 | 16.04835 | 27703 ft | 381 kts | 6° |
| 2026-04-24 22:25 | 69.74419 | 16.06101 | 27701 ft | 381 kts | 6° |
| 2026-04-24 22:25 | 69.77023 | 16.07373 | 27701 ft | 381 kts | 6° |
| 2026-04-24 22:26 | 69.79620 | 16.08643 | 27700 ft | 381 kts | 6° |
| 2026-04-24 22:26 | 69.82211 | 16.09915 | 27698 ft | 381 kts | 6° |
| 2026-04-24 22:26 | 69.84801 | 16.11188 | 27697 ft | 381 kts | 6° |
| 2026-04-24 22:26 | 69.87412 | 16.12476 | 27696 ft | 380 kts | 6° |
| 2026-04-24 22:27 | 69.90037 | 16.13773 | 27696 ft | 380 kts | 6° |
| 2026-04-24 22:27 | 69.92608 | 16.15046 | 27696 ft | 380 kts | 5° |
| 2026-04-24 22:27 | 69.95210 | 16.16339 | 27695 ft | 380 kts | 5° |
| 2026-04-24 22:27 | 69.97805 | 16.17631 | 27693 ft | 380 kts | 5° |
| 2026-04-24 22:28 | 70.00381 | 16.18917 | 27692 ft | 380 kts | 6° |
| 2026-04-24 22:28 | 70.02959 | 16.20208 | 27691 ft | 379 kts | 6° |
| 2026-04-24 22:28 | 70.05573 | 16.21519 | 27690 ft | 379 kts | 6° |
| 2026-04-24 22:28 | 70.08169 | 16.22825 | 27687 ft | 379 kts | 6° |
| 2026-04-24 22:29 | 70.13323 | 16.25427 | 27694 ft | 379 kts | 6° |
| 2026-04-24 22:29 | 70.15906 | 16.26736 | 27693 ft | 379 kts | 6° |
| 2026-04-24 22:29 | 70.18510 | 16.28059 | 27693 ft | 379 kts | 6° |
| 2026-04-24 22:30 | 70.21112 | 16.29288 | 27690 ft | 378 kts | 2° |
| 2026-04-24 22:30 | 70.23704 | 16.29715 | 27691 ft | 376 kts | 356° |
| 2026-04-24 22:30 | 70.26321 | 16.29641 | 27688 ft | 376 kts | 356° |
| 2026-04-24 22:30 | 70.28928 | 16.29553 | 27689 ft | 376 kts | 356° |
| 2026-04-24 22:31 | 70.31515 | 16.29481 | 27689 ft | 376 kts | 356° |
| 2026-04-24 22:31 | 70.34124 | 16.29410 | 27687 ft | 376 kts | 356° |
| 2026-04-24 22:31 | 70.36708 | 16.29342 | 27687 ft | 376 kts | 356° |
| 2026-04-24 22:31 | 70.39336 | 16.29275 | 27685 ft | 376 kts | 356° |
| 2026-04-24 22:32 | 70.41927 | 16.29211 | 27683 ft | 376 kts | 356° |
| 2026-04-24 22:32 | 70.44547 | 16.29148 | 27680 ft | 376 kts | 356° |
| 2026-04-24 22:32 | 70.47150 | 16.29086 | 27676 ft | 376 kts | 356° |
| 2026-04-24 22:32 | 70.49733 | 16.29023 | 27674 ft | 376 kts | 356° |
| 2026-04-24 22:33 | 70.52347 | 16.28960 | 27674 ft | 376 kts | 356° |
| 2026-04-24 22:33 | 70.54960 | 16.28897 | 27673 ft | 376 kts | 356° |
| 2026-04-24 22:33 | 70.57571 | 16.28834 | 27674 ft | 376 kts | 356° |
| 2026-04-24 22:33 | 70.60187 | 16.28772 | 27673 ft | 377 kts | 356° |
| 2026-04-24 22:34 | 70.62781 | 16.28710 | 27671 ft | 377 kts | 356° |
| 2026-04-24 22:34 | 70.65363 | 16.28649 | 27670 ft | 376 kts | 356° |
| 2026-04-24 22:34 | 70.67983 | 16.28587 | 27670 ft | 376 kts | 356° |
| 2026-04-24 22:34 | 70.70582 | 16.28526 | 27670 ft | 376 kts | 356° |
| 2026-04-24 22:35 | 70.73201 | 16.28464 | 27667 ft | 376 kts | 356° |
| 2026-04-24 22:35 | 70.75810 | 16.28403 | 27665 ft | 376 kts | 356° |
| 2026-04-24 22:35 | 70.78394 | 16.28343 | 27662 ft | 376 kts | 356° |
| 2026-04-24 22:35 | 70.81001 | 16.28282 | 27662 ft | 376 kts | 356° |
| 2026-04-24 22:36 | 70.83618 | 16.28220 | 27666 ft | 376 kts | 356° |
| 2026-04-24 22:36 | 70.86228 | 16.28159 | 27667 ft | 376 kts | 356° |
| 2026-04-24 22:36 | 70.88844 | 16.28098 | 27668 ft | 376 kts | 356° |
| 2026-04-24 22:36 | 70.91438 | 16.28037 | 27670 ft | 376 kts | 356° |
| 2026-04-24 22:37 | 70.94026 | 16.27976 | 27670 ft | 376 kts | 357° |
| 2026-04-24 22:37 | 70.96645 | 16.27915 | 27671 ft | 376 kts | 357° |
| 2026-04-24 22:37 | 70.99264 | 16.27854 | 27670 ft | 376 kts | 357° |
| 2026-04-24 22:37 | 71.01859 | 16.27793 | 27668 ft | 376 kts | 357° |
| 2026-04-24 22:38 | 71.04449 | 16.27732 | 27667 ft | 376 kts | 357° |
| 2026-04-24 22:38 | 71.07073 | 16.27670 | 27664 ft | 376 kts | 357° |
| 2026-04-24 22:38 | 71.09661 | 16.27608 | 27666 ft | 376 kts | 357° |
| 2026-04-24 22:38 | 71.12279 | 16.27546 | 27667 ft | 376 kts | 357° |
| 2026-04-24 22:39 | 71.14880 | 16.27484 | 27670 ft | 376 kts | 357° |
| 2026-04-24 22:39 | 71.17519 | 16.27421 | 27672 ft | 377 kts | 357° |
| 2026-04-24 22:39 | 71.20149 | 16.27358 | 27675 ft | 377 kts | 357° |
| 2026-04-24 22:39 | 71.22767 | 16.27295 | 27673 ft | 378 kts | 357° |
| 2026-04-24 22:40 | 71.25364 | 16.27232 | 27669 ft | 378 kts | 357° |
| 2026-04-24 22:40 | 71.27973 | 16.27169 | 27668 ft | 378 kts | 357° |
| 2026-04-24 22:40 | 71.30605 | 16.27105 | 27666 ft | 378 kts | 357° |
| 2026-04-24 22:40 | 71.33225 | 16.27041 | 27668 ft | 378 kts | 357° |
| 2026-04-24 22:41 | 71.35870 | 16.26976 | 27666 ft | 379 kts | 357° |
| 2026-04-24 22:41 | 71.38486 | 16.26912 | 27660 ft | 379 kts | 358° |
| 2026-04-24 22:41 | 71.41109 | 16.26847 | 27657 ft | 379 kts | 357° |
| 2026-04-24 22:41 | 71.42865 | 16.26804 | 27657 ft | 379 kts | 357° |
| 2026-04-24 22:42 | 71.46371 | 16.26717 | 27657 ft | 379 kts | 357° |
| 2026-04-24 22:42 | 71.48993 | 16.26652 | 27657 ft | 379 kts | 357° |
| 2026-04-24 22:42 | 71.51636 | 16.26587 | 27657 ft | 379 kts | 358° |
| 2026-04-24 22:42 | 71.54282 | 16.26521 | 27657 ft | 380 kts | 358° |
| 2026-04-24 22:43 | 71.56892 | 16.26456 | 27657 ft | 380 kts | 358° |
| 2026-04-24 22:43 | 71.59574 | 16.26388 | 27658 ft | 380 kts | 358° |
| 2026-04-24 22:43 | 71.62196 | 16.26322 | 27657 ft | 380 kts | 358° |
| 2026-04-24 22:43 | 71.64831 | 16.26255 | 27656 ft | 381 kts | 358° |
| 2026-04-24 22:44 | 71.67465 | 16.26188 | 27657 ft | 380 kts | 358° |
| 2026-04-24 22:44 | 71.70092 | 16.26121 | 27657 ft | 380 kts | 358° |
| 2026-04-24 22:44 | 71.72720 | 16.26053 | 27657 ft | 380 kts | 358° |
| 2026-04-24 22:44 | 71.75374 | 16.25985 | 27656 ft | 380 kts | 358° |
| 2026-04-24 22:45 | 71.78010 | 16.25919 | 27658 ft | 380 kts | 358° |
| 2026-04-24 22:45 | 71.80644 | 16.25853 | 27656 ft | 380 kts | 358° |
| 2026-04-24 22:45 | 71.83282 | 16.25787 | 27658 ft | 380 kts | 358° |
| 2026-04-24 22:45 | 71.85963 | 16.25720 | 27657 ft | 380 kts | 358° |
| 2026-04-24 22:46 | 71.88605 | 16.25654 | 27657 ft | 380 kts | 358° |
| 2026-04-24 22:46 | 71.91232 | 16.25589 | 27659 ft | 380 kts | 358° |
| 2026-04-24 22:46 | 71.93892 | 16.25522 | 27655 ft | 380 kts | 358° |
| 2026-04-24 22:46 | 71.96523 | 16.25455 | 27654 ft | 381 kts | 358° |
| 2026-04-24 22:47 | 71.99154 | 16.25386 | 27651 ft | 381 kts | 358° |
| 2026-04-24 22:47 | 72.01814 | 16.25316 | 27652 ft | 381 kts | 358° |
| 2026-04-24 22:47 | 72.04439 | 16.25247 | 27650 ft | 381 kts | 358° |
| 2026-04-24 22:47 | 72.07109 | 16.25176 | 27652 ft | 381 kts | 358° |
| 2026-04-24 22:48 | 72.09743 | 16.25106 | 27653 ft | 381 kts | 358° |
| 2026-04-24 22:48 | 72.12405 | 16.25035 | 27662 ft | 381 kts | 358° |
| 2026-04-24 22:48 | 72.15079 | 16.24964 | 27663 ft | 381 kts | 358° |
| 2026-04-24 22:48 | 72.17681 | 16.24894 | 27663 ft | 381 kts | 358° |
| 2026-04-24 22:49 | 72.20345 | 16.24822 | 27666 ft | 381 kts | 359° |
| 2026-04-24 22:49 | 72.22983 | 16.24752 | 27665 ft | 381 kts | 359° |
| 2026-04-24 22:49 | 72.25652 | 16.24682 | 27663 ft | 381 kts | 358° |
| 2026-04-24 22:49 | 72.28297 | 16.24612 | 27656 ft | 381 kts | 359° |
| 2026-04-24 22:50 | 72.30946 | 16.24542 | 27658 ft | 381 kts | 359° |
| 2026-04-24 22:50 | 72.33589 | 16.24471 | 27664 ft | 381 kts | 359° |
| 2026-04-24 22:50 | 72.36224 | 16.24401 | 27660 ft | 382 kts | 359° |
| 2026-04-24 22:50 | 72.38879 | 16.24330 | 27660 ft | 382 kts | 359° |
| 2026-04-24 22:51 | 72.41525 | 16.24258 | 27661 ft | 381 kts | 359° |
| 2026-04-24 22:51 | 72.44162 | 16.24187 | 27665 ft | 381 kts | 359° |
| 2026-04-24 22:51 | 72.46809 | 16.24114 | 27661 ft | 381 kts | 359° |
| 2026-04-24 22:51 | 72.49459 | 16.24042 | 27663 ft | 381 kts | 359° |
| 2026-04-24 22:52 | 72.52090 | 16.23970 | 27663 ft | 381 kts | 359° |
| 2026-04-24 22:52 | 72.54722 | 16.23897 | 27664 ft | 381 kts | 359° |
| 2026-04-24 22:52 | 72.57352 | 16.23824 | 27661 ft | 381 kts | 359° |
| 2026-04-24 22:52 | 72.59995 | 16.23750 | 27666 ft | 381 kts | 359° |
| 2026-04-24 22:53 | 72.62649 | 16.23676 | 27666 ft | 381 kts | 359° |
| 2026-04-24 22:53 | 72.65283 | 16.23602 | 27667 ft | 381 kts | 359° |
| 2026-04-24 22:53 | 72.67902 | 16.23529 | 27663 ft | 380 kts | 359° |
| 2026-04-24 22:53 | 72.70557 | 16.23456 | 27663 ft | 380 kts | 359° |
| 2026-04-24 22:54 | 72.73177 | 16.23383 | 27663 ft | 380 kts | 359° |
| 2026-04-24 22:54 | 72.75817 | 16.23308 | 27659 ft | 380 kts | 359° |
| 2026-04-24 22:54 | 72.78455 | 16.23234 | 27655 ft | 380 kts | 359° |
| 2026-04-24 22:54 | 72.81062 | 16.23160 | 27655 ft | 380 kts | 359° |
| 2026-04-24 22:55 | 72.83705 | 16.23085 | 27651 ft | 380 kts | 359° |
| 2026-04-24 22:55 | 72.86330 | 16.23011 | 27654 ft | 380 kts | 359° |
| 2026-04-24 22:55 | 72.88977 | 16.22936 | 27653 ft | 380 kts | 359° |
| 2026-04-24 22:55 | 72.91609 | 16.22861 | 27655 ft | 380 kts | 359° |
| 2026-04-24 22:56 | 72.94263 | 16.22784 | 27659 ft | 380 kts | 359° |
| 2026-04-24 22:56 | 72.96912 | 16.22708 | 27662 ft | 380 kts | 359° |
| 2026-04-24 22:56 | 72.99541 | 16.22632 | 27664 ft | 380 kts | 360° |
| 2026-04-24 22:56 | 73.02194 | 16.22555 | 27670 ft | 380 kts | 360° |
| 2026-04-24 22:57 | 73.04857 | 16.22478 | 27674 ft | 380 kts | 360° |
| 2026-04-24 22:57 | 73.07310 | 16.22407 | 27681 ft | 380 kts | 360° |
| 2026-04-24 22:57 | 73.09947 | 16.22330 | 27678 ft | 380 kts | 360° |
| 2026-04-24 22:57 | 73.12573 | 16.22253 | 27680 ft | 381 kts | 360° |
| 2026-04-24 22:58 | 73.15245 | 16.22175 | 27681 ft | 381 kts | 360° |
| 2026-04-24 22:58 | 73.17924 | 16.22097 | 27688 ft | 382 kts | 0° |
| 2026-04-24 22:58 | 73.20566 | 16.22019 | 27684 ft | 382 kts | 0° |
| 2026-04-24 22:58 | 73.23229 | 16.21941 | 27680 ft | 382 kts | 360° |
| 2026-04-24 22:59 | 73.25848 | 16.21864 | 27683 ft | 382 kts | 0° |
| 2026-04-24 22:59 | 73.28532 | 16.21783 | 27685 ft | 382 kts | 0° |
| 2026-04-24 22:59 | 73.33837 | 16.21623 | 27680 ft | 383 kts | 0° |
| 2026-04-24 23:00 | 73.36504 | 16.21541 | 27687 ft | 383 kts | 0° |
| 2026-04-24 23:00 | 73.39157 | 16.21458 | 27687 ft | 383 kts | 0° |
| 2026-04-24 23:00 | 73.41798 | 16.21377 | 27692 ft | 383 kts | 0° |
| 2026-04-24 23:00 | 73.44464 | 16.21294 | 27692 ft | 383 kts | 0° |
| 2026-04-24 23:01 | 73.47161 | 16.21211 | 27693 ft | 383 kts | 0° |
| 2026-04-24 23:01 | 73.49876 | 16.21128 | 27701 ft | 384 kts | 1° |
| 2026-04-24 23:01 | 73.52560 | 16.21047 | 27697 ft | 384 kts | 1° |
| 2026-04-24 23:01 | 73.55235 | 16.20966 | 27692 ft | 384 kts | 1° |
| 2026-04-24 23:02 | 73.57896 | 16.20885 | 27693 ft | 384 kts | 1° |
| 2026-04-24 23:02 | 73.60621 | 16.20801 | 27690 ft | 383 kts | 1° |
| 2026-04-24 23:02 | 73.61559 | 16.20772 | 27686 ft | 383 kts | 1° |
| 2026-04-24 23:02 | 73.64197 | 16.20689 | 27691 ft | 381 kts | 1° |
| 2026-04-24 23:03 | 73.66849 | 16.20604 | 27698 ft | 380 kts | 1° |
| 2026-04-24 23:03 | 73.69478 | 16.20520 | 27701 ft | 379 kts | 1° |
| 2026-04-24 23:03 | 73.72107 | 16.20437 | 27694 ft | 379 kts | 1° |
| 2026-04-24 23:03 | 73.74715 | 16.20355 | 27691 ft | 378 kts | 1° |
| 2026-04-24 23:04 | 73.77366 | 16.20271 | 27687 ft | 378 kts | 1° |
| 2026-04-24 23:04 | 73.79982 | 16.20189 | 27689 ft | 377 kts | 1° |
| 2026-04-24 23:04 | 73.82597 | 16.20105 | 27690 ft | 377 kts | 1° |
| 2026-04-24 23:04 | 73.85200 | 16.20022 | 27689 ft | 377 kts | 1° |
| 2026-04-24 23:05 | 73.87833 | 16.19938 | 27690 ft | 377 kts | 1° |
| 2026-04-24 23:05 | 73.90435 | 16.19856 | 27693 ft | 377 kts | 1° |
| 2026-04-24 23:05 | 73.93045 | 16.19773 | 27695 ft | 377 kts | 1° |
| 2026-04-24 23:05 | 73.95631 | 16.19690 | 27692 ft | 377 kts | 1° |
| 2026-04-24 23:06 | 73.98269 | 16.19606 | 27695 ft | 377 kts | 1° |
| 2026-04-24 23:06 | 74.00851 | 16.19523 | 27696 ft | 377 kts | 1° |
| 2026-04-24 23:06 | 74.03483 | 16.19438 | 27692 ft | 377 kts | 1° |
| 2026-04-24 23:06 | 74.06097 | 16.19353 | 27697 ft | 377 kts | 1° |
| 2026-04-24 23:07 | 74.08701 | 16.19268 | 27700 ft | 377 kts | 2° |
| 2026-04-24 23:07 | 74.11311 | 16.19181 | 27696 ft | 377 kts | 2° |
| 2026-04-24 23:07 | 74.13899 | 16.19094 | 27702 ft | 377 kts | 2° |
| 2026-04-24 23:07 | 74.16509 | 16.19006 | 27704 ft | 377 kts | 2° |
| 2026-04-24 23:08 | 74.19138 | 16.18917 | 27705 ft | 377 kts | 2° |
| 2026-04-24 23:08 | 74.21730 | 16.18830 | 27705 ft | 378 kts | 2° |
| 2026-04-24 23:08 | 74.24371 | 16.18741 | 27705 ft | 378 kts | 2° |
| 2026-04-24 23:08 | 74.26984 | 16.18653 | 27708 ft | 378 kts | 1° |
| 2026-04-24 23:09 | 74.29595 | 16.18565 | 27716 ft | 378 kts | 1° |
| 2026-04-24 23:09 | 74.32201 | 16.18477 | 27717 ft | 378 kts | 2° |
| 2026-04-24 23:09 | 74.34851 | 16.18387 | 27722 ft | 379 kts | 2° |
| 2026-04-24 23:09 | 74.37463 | 16.18299 | 27724 ft | 379 kts | 2° |
| 2026-04-24 23:10 | 74.40060 | 16.18211 | 27722 ft | 379 kts | 2° |
| 2026-04-24 23:10 | 74.42700 | 16.18121 | 27722 ft | 379 kts | 2° |
| 2026-04-24 23:10 | 74.45325 | 16.18032 | 27726 ft | 379 kts | 2° |
| 2026-04-24 23:10 | 74.47938 | 16.17943 | 27729 ft | 380 kts | 2° |
| 2026-04-24 23:11 | 74.50594 | 16.17851 | 27735 ft | 380 kts | 2° |
| 2026-04-24 23:11 | 74.53230 | 16.17758 | 27735 ft | 380 kts | 2° |
| 2026-04-24 23:11 | 74.55852 | 16.17666 | 27743 ft | 380 kts | 2° |
| 2026-04-24 23:11 | 74.58488 | 16.17573 | 27743 ft | 380 kts | 2° |
| 2026-04-24 23:12 | 74.61138 | 16.17479 | 27739 ft | 381 kts | 2° |
| 2026-04-24 23:12 | 74.63763 | 16.17386 | 27740 ft | 381 kts | 2° |
| 2026-04-24 23:12 | 74.66373 | 16.17293 | 27741 ft | 381 kts | 2° |
| 2026-04-24 23:12 | 74.69010 | 16.17200 | 27742 ft | 381 kts | 2° |
| 2026-04-24 23:13 | 74.71662 | 16.17106 | 27744 ft | 382 kts | 2° |
| 2026-04-24 23:13 | 74.74333 | 16.17011 | 27748 ft | 382 kts | 2° |
| 2026-04-24 23:13 | 74.76957 | 16.16918 | 27748 ft | 382 kts | 2° |
| 2026-04-24 23:13 | 74.79591 | 16.16824 | 27747 ft | 382 kts | 2° |
| 2026-04-24 23:14 | 74.82266 | 16.16729 | 27747 ft | 382 kts | 2° |
| 2026-04-24 23:14 | 74.84906 | 16.16635 | 27745 ft | 383 kts | 2° |
| 2026-04-24 23:14 | 74.87536 | 16.16539 | 27738 ft | 383 kts | 2° |
| 2026-04-24 23:14 | 74.90196 | 16.16442 | 27740 ft | 383 kts | 2° |
| 2026-04-24 23:15 | 74.92856 | 16.16345 | 27745 ft | 383 kts | 2° |
| 2026-04-24 23:15 | 74.95497 | 16.16248 | 27748 ft | 384 kts | 2° |
| 2026-04-24 23:15 | 74.98144 | 16.16150 | 27758 ft | 384 kts | 2° |
| 2026-04-24 23:15 | 75.00794 | 16.16052 | 27761 ft | 384 kts | 2° |
| 2026-04-24 23:16 | 75.03447 | 16.15953 | 27761 ft | 384 kts | 2° |
| 2026-04-24 23:16 | 75.06108 | 16.15854 | 27761 ft | 384 kts | 2° |
| 2026-04-24 23:16 | 75.08797 | 16.15753 | 27765 ft | 384 kts | 2° |
| 2026-04-24 23:16 | 75.11439 | 16.15654 | 27765 ft | 385 kts | 2° |
| 2026-04-24 23:17 | 75.14119 | 16.15553 | 27767 ft | 385 kts | 2° |
| 2026-04-24 23:17 | 75.16780 | 16.15452 | 27769 ft | 385 kts | 2° |
| 2026-04-24 23:17 | 75.19447 | 16.15351 | 27765 ft | 385 kts | 2° |
| 2026-04-24 23:17 | 75.22111 | 16.15250 | 27766 ft | 385 kts | 2° |
| 2026-04-24 23:18 | 75.24771 | 16.15147 | 27769 ft | 385 kts | 2° |
| 2026-04-24 23:18 | 75.27436 | 16.15043 | 27775 ft | 385 kts | 2° |
| 2026-04-24 23:18 | 75.30105 | 16.14938 | 27777 ft | 385 kts | 2° |
| 2026-04-24 23:18 | 75.32768 | 16.14832 | 27775 ft | 385 kts | 2° |
| 2026-04-24 23:19 | 75.35427 | 16.14729 | 27781 ft | 386 kts | 2° |
| 2026-04-24 23:19 | 75.38094 | 16.14626 | 27783 ft | 386 kts | 2° |
| 2026-04-24 23:19 | 75.40771 | 16.14523 | 27783 ft | 386 kts | 2° |
| 2026-04-24 23:19 | 75.43419 | 16.14421 | 27785 ft | 386 kts | 2° |
| 2026-04-24 23:20 | 75.46095 | 16.14318 | 27783 ft | 386 kts | 2° |
| 2026-04-24 23:20 | 75.48758 | 16.14215 | 27788 ft | 386 kts | 2° |
| 2026-04-24 23:20 | 75.51434 | 16.14112 | 27790 ft | 386 kts | 2° |
| 2026-04-24 23:20 | 75.54126 | 16.14008 | 27788 ft | 386 kts | 2° |
| 2026-04-24 23:21 | 75.56787 | 16.13903 | 27794 ft | 387 kts | 2° |
| 2026-04-24 23:21 | 75.59489 | 16.13795 | 27795 ft | 387 kts | 2° |
| 2026-04-24 23:21 | 75.62160 | 16.13687 | 27798 ft | 387 kts | 2° |
| 2026-04-24 23:21 | 75.64843 | 16.13579 | 27797 ft | 387 kts | 2° |
| 2026-04-24 23:22 | 75.67509 | 16.13471 | 27799 ft | 387 kts | 2° |
| 2026-04-24 23:22 | 75.70229 | 16.13361 | 27803 ft | 388 kts | 2° |
| 2026-04-24 23:22 | 75.72920 | 16.12471 | 27808 ft | 390 kts | 355° |
| 2026-04-24 23:22 | 75.75589 | 16.10827 | 27808 ft | 391 kts | 353° |
| 2026-04-24 23:23 | 75.78235 | 16.08779 | 27807 ft | 392 kts | 352° |
| 2026-04-24 23:23 | 75.80908 | 16.06335 | 27811 ft | 393 kts | 350° |
| 2026-04-24 23:23 | 75.83548 | 16.03937 | 27810 ft | 392 kts | 353° |
| 2026-04-24 23:23 | 75.86215 | 16.02099 | 27809 ft | 392 kts | 354° |
| 2026-04-24 23:24 | 75.88884 | 16.00336 | 27809 ft | 392 kts | 354° |
| 2026-04-24 23:24 | 75.91572 | 15.98530 | 27815 ft | 392 kts | 354° |
| 2026-04-24 23:24 | 75.94235 | 15.96725 | 27819 ft | 392 kts | 354° |
| 2026-04-24 23:24 | 75.96930 | 15.94886 | 27819 ft | 392 kts | 354° |
| 2026-04-24 23:25 | 75.99603 | 15.93054 | 27818 ft | 392 kts | 354° |
| 2026-04-24 23:25 | 76.02283 | 15.91208 | 27822 ft | 392 kts | 354° |
| 2026-04-24 23:25 | 76.04960 | 15.89354 | 27825 ft | 392 kts | 354° |
| 2026-04-24 23:25 | 76.07632 | 15.87497 | 27828 ft | 392 kts | 354° |
| 2026-04-24 23:26 | 76.10332 | 15.85611 | 27826 ft | 392 kts | 354° |
| 2026-04-24 23:26 | 76.13001 | 15.83739 | 27831 ft | 393 kts | 354° |
| 2026-04-24 23:26 | 76.15666 | 15.81862 | 27838 ft | 393 kts | 354° |
| 2026-04-24 23:26 | 76.18382 | 15.79940 | 27839 ft | 393 kts | 354° |
| 2026-04-24 23:27 | 76.21069 | 15.78031 | 27839 ft | 393 kts | 354° |
| 2026-04-24 23:27 | 76.23743 | 15.76123 | 27837 ft | 393 kts | 354° |
| 2026-04-24 23:27 | 76.26435 | 15.74194 | 27842 ft | 393 kts | 354° |
| 2026-04-24 23:27 | 76.29116 | 15.72266 | 27844 ft | 394 kts | 354° |
| 2026-04-24 23:28 | 76.31794 | 15.70331 | 27844 ft | 394 kts | 354° |
| 2026-04-24 23:28 | 76.34474 | 15.68386 | 27851 ft | 394 kts | 354° |
| 2026-04-24 23:28 | 76.37151 | 15.66437 | 27856 ft | 394 kts | 354° |
| 2026-04-24 23:28 | 76.39850 | 15.64463 | 27855 ft | 394 kts | 354° |
| 2026-04-24 23:29 | 76.42553 | 15.62478 | 27852 ft | 395 kts | 354° |
| 2026-04-24 23:29 | 76.45255 | 15.60487 | 27859 ft | 395 kts | 353° |
| 2026-04-24 23:29 | 76.47959 | 15.58484 | 27864 ft | 395 kts | 353° |
| 2026-04-24 23:29 | 76.50648 | 15.56486 | 27864 ft | 395 kts | 353° |
| 2026-04-24 23:30 | 76.53371 | 15.54454 | 27861 ft | 395 kts | 353° |
| 2026-04-24 23:30 | 76.56068 | 15.52434 | 27861 ft | 395 kts | 353° |
| 2026-04-24 23:30 | 76.58756 | 15.50412 | 27863 ft | 395 kts | 353° |
| 2026-04-24 23:30 | 76.61460 | 15.48370 | 27865 ft | 395 kts | 353° |
| 2026-04-24 23:31 | 76.64159 | 15.46322 | 27865 ft | 395 kts | 353° |
| 2026-04-24 23:31 | 76.66829 | 15.44290 | 27866 ft | 395 kts | 353° |
| 2026-04-24 23:31 | 76.69539 | 15.42217 | 27866 ft | 396 kts | 353° |
| 2026-04-24 23:31 | 76.72250 | 15.40135 | 27870 ft | 396 kts | 353° |
| 2026-04-24 23:32 | 76.74962 | 15.38045 | 27875 ft | 396 kts | 353° |
| 2026-04-24 23:32 | 76.77698 | 15.35926 | 27876 ft | 396 kts | 353° |
| 2026-04-24 23:32 | 76.80382 | 15.33837 | 27875 ft | 393 kts | 352° |
| 2026-04-24 23:32 | 76.83054 | 15.31743 | 27809 ft | 389 kts | 352° |
| 2026-04-24 23:33 | 76.85681 | 15.29674 | 27860 ft | 384 kts | 352° |
| 2026-04-24 23:33 | 76.87423 | 15.28302 | 27856 ft | 381 kts | 352° |
| 2026-04-24 23:33 | 76.90881 | 15.25569 | 27858 ft | 376 kts | 352° |
| 2026-04-24 23:33 | 76.93476 | 15.23509 | 27853 ft | 373 kts | 352° |
| 2026-04-24 23:34 | 76.96025 | 15.21479 | 27859 ft | 370 kts | 352° |
| 2026-04-24 23:34 | 76.98543 | 15.19466 | 27855 ft | 367 kts | 352° |
| 2026-04-24 23:34 | 77.01046 | 15.17458 | 27858 ft | 364 kts | 352° |
| 2026-04-24 23:34 | 77.03507 | 15.15475 | 27852 ft | 362 kts | 352° |
| 2026-04-24 23:35 | 77.05967 | 15.13487 | 27844 ft | 360 kts | 352° |
| 2026-04-24 23:35 | 77.08412 | 15.11503 | 27836 ft | 358 kts | 352° |
| 2026-04-24 23:35 | 77.10878 | 15.09495 | 27826 ft | 356 kts | 352° |
| 2026-04-24 23:35 | 77.13294 | 15.07521 | 27817 ft | 355 kts | 352° |
| 2026-04-24 23:36 | 77.15704 | 15.05543 | 27820 ft | 353 kts | 352° |
| 2026-04-24 23:36 | 77.18126 | 15.03548 | 27818 ft | 352 kts | 352° |
| 2026-04-24 23:36 | 77.20514 | 15.01575 | 27814 ft | 350 kts | 352° |
| 2026-04-24 23:36 | 77.22925 | 14.99574 | 27816 ft | 349 kts | 352° |
| 2026-04-24 23:37 | 77.25301 | 14.97596 | 27725 ft | 348 kts | 352° |
| 2026-04-24 23:37 | 77.27660 | 14.95622 | 27524 ft | 344 kts | 352° |
| 2026-04-24 23:37 | 77.32330 | 14.91693 | 27098 ft | 338 kts | 352° |
| 2026-04-24 23:38 | 77.34628 | 14.89750 | 26879 ft | 336 kts | 352° |
| 2026-04-24 23:38 | 77.36893 | 14.87826 | 26660 ft | 334 kts | 352° |
| 2026-04-24 23:38 | 77.39198 | 14.85862 | 26437 ft | 332 kts | 352° |
| 2026-04-24 23:38 | 77.41438 | 14.83948 | 26213 ft | 330 kts | 352° |
| 2026-04-24 23:39 | 77.43701 | 14.82008 | 25973 ft | 329 kts | 352° |
| 2026-04-24 23:39 | 77.45942 | 14.80080 | 25733 ft | 328 kts | 352° |
| 2026-04-24 23:39 | 77.48164 | 14.78160 | 25495 ft | 326 kts | 352° |
| 2026-04-24 23:39 | 77.50377 | 14.76243 | 25248 ft | 325 kts | 352° |
| 2026-04-24 23:40 | 77.52583 | 14.74324 | 24998 ft | 324 kts | 352° |
| 2026-04-24 23:40 | 77.54805 | 14.72387 | 24732 ft | 323 kts | 352° |
| 2026-04-24 23:40 | 77.57017 | 14.70450 | 24466 ft | 322 kts | 352° |
| 2026-04-24 23:40 | 77.59203 | 14.68526 | 24205 ft | 321 kts | 352° |
| 2026-04-24 23:41 | 77.61373 | 14.66611 | 23971 ft | 320 kts | 352° |
| 2026-04-24 23:41 | 77.63549 | 14.64683 | 23707 ft | 319 kts | 352° |
| 2026-04-24 23:41 | 77.65750 | 14.62728 | 23451 ft | 318 kts | 352° |
| 2026-04-24 23:41 | 77.67957 | 14.60763 | 23214 ft | 323 kts | 352° |
| 2026-04-24 23:42 | 77.70175 | 14.58788 | 23009 ft | 327 kts | 352° |
| 2026-04-24 23:42 | 77.72428 | 14.56772 | 22842 ft | 329 kts | 352° |
| 2026-04-24 23:42 | 77.74693 | 14.54731 | 22664 ft | 331 kts | 352° |
| 2026-04-24 23:42 | 77.76997 | 14.52647 | 22479 ft | 331 kts | 352° |
| 2026-04-24 23:43 | 77.79249 | 14.50593 | 22289 ft | 325 kts | 352° |
| 2026-04-24 23:43 | 77.81461 | 14.48566 | 22099 ft | 321 kts | 352° |
| 2026-04-24 23:43 | 77.83615 | 14.46591 | 21891 ft | 317 kts | 352° |
| 2026-04-24 23:43 | 77.85766 | 14.44614 | 21644 ft | 314 kts | 352° |
| 2026-04-24 23:44 | 77.87904 | 14.42644 | 21317 ft | 316 kts | 352° |
| 2026-04-24 23:44 | 77.90076 | 14.40640 | 20862 ft | 320 kts | 352° |
| 2026-04-24 23:44 | 77.92268 | 14.38616 | 20202 ft | 323 kts | 352° |
| 2026-04-24 23:44 | 77.94456 | 14.36582 | 19603 ft | 325 kts | 352° |
| 2026-04-24 23:45 | 77.96674 | 14.34507 | 19021 ft | 325 kts | 351° |
| 2026-04-24 23:45 | 77.98891 | 14.32427 | 18454 ft | 325 kts | 351° |
| 2026-04-24 23:45 | 78.01099 | 14.30345 | 17857 ft | 324 kts | 351° |
| 2026-04-24 23:45 | 78.03314 | 14.28247 | 17295 ft | 323 kts | 351° |
| 2026-04-24 23:46 | 78.05502 | 14.26167 | 16710 ft | 322 kts | 351° |
| 2026-04-24 23:46 | 78.07687 | 14.24080 | 16134 ft | 320 kts | 351° |
| 2026-04-24 23:46 | 78.09875 | 14.21985 | 15608 ft | 318 kts | 351° |
| 2026-04-24 23:46 | 78.12045 | 14.19905 | 15015 ft | 316 kts | 351° |
| 2026-04-24 23:47 | 78.14194 | 14.17835 | 14428 ft | 314 kts | 351° |
| 2026-04-24 23:47 | 78.16344 | 14.15757 | 13874 ft | 312 kts | 351° |
| 2026-04-24 23:47 | 78.18467 | 14.13698 | 13345 ft | 310 kts | 351° |
| 2026-04-24 23:47 | 78.20557 | 14.11664 | 12848 ft | 308 kts | 351° |
| 2026-04-24 23:48 | 78.22660 | 14.09823 | 12323 ft | 305 kts | 358° |
| 2026-04-24 23:48 | 78.24731 | 14.11167 | 11754 ft | 299 kts | 22° |
| 2026-04-24 23:48 | 78.26489 | 14.16545 | 11228 ft | 295 kts | 39° |
| 2026-04-24 23:48 | 78.28130 | 14.22508 | 10769 ft | 291 kts | 38° |
| 2026-04-24 23:49 | 78.29443 | 14.29301 | 9610 ft | 273 kts | 57° |
| 2026-04-24 23:49 | 78.30028 | 14.38043 | 7877 ft | 274 kts | 85° |
| 2026-04-24 23:49 | 78.29659 | 14.46932 | 6473 ft | 272 kts | 112° |
| 2026-04-24 23:49 | 78.28410 | 14.53890 | 4859 ft | 297 kts | 143° |
| 2026-04-24 23:50 | 78.26409 | 14.57228 | 3605 ft | 315 kts | 174° |
| 2026-04-24 23:50 | 78.24260 | 14.55354 | 2907 ft | 307 kts | 206° |
| 2026-04-24 23:50 | 78.22723 | 14.49887 | 2954 ft | 247 kts | 234° |
| 2026-04-24 23:50 | 78.22170 | 14.42759 | 2986 ft | 216 kts | 275° |
| 2026-04-24 23:51 | 78.22647 | 14.36421 | 2986 ft | 189 kts | 321° |
| 2026-04-24 23:51 | 78.23738 | 14.34156 | 2994 ft | 163 kts | 9° |
| 2026-04-24 23:51 | 78.24753 | 14.36991 | 3000 ft | 186 kts | 51° |
| 2026-04-24 23:51 | 78.25449 | 14.42977 | 2985 ft | 234 kts | 62° |
| 2026-04-24 23:52 | 78.26215 | 14.50948 | 2958 ft | 256 kts | 63° |
| 2026-04-24 23:52 | 78.26927 | 14.58470 | 2961 ft | 230 kts | 62° |
| 2026-04-24 23:52 | 78.27573 | 14.65334 | 2964 ft | 214 kts | 63° |
| 2026-04-24 23:52 | 78.28188 | 14.71926 | 2950 ft | 204 kts | 64° |
| 2026-04-24 23:53 | 78.28439 | 14.78565 | 2960 ft | 197 kts | 97° |
| 2026-04-24 23:53 | 78.28055 | 14.84928 | 2973 ft | 190 kts | 104° |
| 2026-04-24 23:53 | 78.27681 | 14.91057 | 2993 ft | 185 kts | 101° |
| 2026-04-24 23:53 | 78.27341 | 14.97177 | 2667 ft | 187 kts | 101° |
| 2026-04-24 23:54 | 78.27009 | 15.03130 | 2519 ft | 164 kts | 101° |
| 2026-04-24 23:54 | 78.26730 | 15.08136 | 2295 ft | 145 kts | 99° |
| 2026-04-24 23:54 | 78.26497 | 15.13089 | 1793 ft | 157 kts | 99° |
| 2026-04-24 23:54 | 78.26189 | 15.18368 | 1298 ft | 168 kts | 102° |
| 2026-04-24 23:55 | 78.25847 | 15.23741 | 847 ft | 161 kts | 100° |
| 2026-04-24 23:55 | 78.25584 | 15.29015 | 663 ft | 156 kts | 98° |
| 2026-04-24 23:55 | 78.25311 | 15.33830 | 505 ft | 136 kts | 100° |
| 2026-04-24 23:55 | 78.25092 | 15.37904 | 271 ft | 113 kts | 96° |
| 2026-04-24 23:56 | 78.24879 | 15.41830 | 127 ft | 122 kts | 98° |
| 2026-04-24 23:56 | 78.24688 | 15.45464 | 97 ft | 97 kts | 101° |
| 2026-04-24 23:56 | 78.24525 | 15.48151 | 106 ft | 50 kts | 99° |
| 2026-04-24 23:56 | 78.24472 | 15.49245 | 101 ft | 13 kts | 86° |
| 2026-04-24 23:57 | 78.24531 | 15.49498 | 93 ft | 6 kts | 8° |
| 2026-04-24 23:57 | 78.24551 | 15.49509 | 93 ft | 0 kts | 359° |
| 2026-04-24 23:57 | 78.24576 | 15.49509 | 92 ft | 8 kts | 0° |
| 2026-04-24 23:57 | 78.24633 | 15.49373 | 93 ft | 3 kts | 284° |
| 2026-04-24 23:58 | 78.24633 | 15.49363 | 93 ft | 0 kts | 284° |